AYNZ/LAE METAR and TAF weather

Enter ICAO airport designator
Station Type Date Time Source
AYNZ METAR 2019/06/24 22:00 UTC NOAA

AYNZ 242200Z VRB03KT 9999 FEW005 SCT040 25/23 Q1013=


Station Type Date Time Source
AYNZ Decoded METAR 2019/06/24 22:00 UTC NOAA

Station name not available
Jun 24, 2019 - 06:00 PM EDT / 2019.06.24 2200 UTC
Wind: Variable at 3 MPH (3 KT):0
Visibility: greater than 7 mile(s):0
Sky conditions: partly cloudy
Temperature: 77 F (25 C)
Dew Point: 73 F (23 C)
Relative Humidity: 88%
Pressure (altimeter): 29.91 in. Hg (1013 hPa)
ob: AYNZ 242200Z VRB03KT 9999 FEW005 SCT040 25/23 Q1013=
cycle: 22

Station Type Date Time Source
AYNZ TAF 2015/08/19 08:15 UTC NOAA

TAF AYNZ 190550Z 1908/1920 09015KT 9999 SCT020 SCT120
FM191400 VRB03KT 9999 BKN040 Q 1011 1014 1013 1010

Example: see airport list